createdAt,value
2018-07-15T00:00:23.397Z,18.58
2018-07-15T00:05:15.822Z,18.51
2018-07-15T00:10:08.327Z,18.43
2018-07-15T00:15:01.068Z,18.34
2018-07-15T00:19:53.632Z,18.21
2018-07-15T00:24:46.235Z,18.11
2018-07-15T00:29:38.847Z,18.02
2018-07-15T00:34:31.397Z,17.88
2018-07-15T00:39:23.969Z,17.80
2018-07-15T00:44:16.559Z,17.74
2018-07-15T00:49:09.233Z,17.65
2018-07-15T00:54:01.765Z,17.54
2018-07-15T00:58:54.297Z,17.43
2018-07-15T01:03:46.885Z,17.31
2018-07-15T01:08:39.497Z,17.27
2018-07-15T01:13:32.094Z,17.18
2018-07-15T01:18:24.695Z,17.11
2018-07-15T01:23:17.316Z,17.14
2018-07-15T01:28:09.978Z,17.08
2018-07-15T01:33:02.604Z,17.06
2018-07-15T01:37:55.257Z,17.01
2018-07-15T01:42:47.817Z,16.93
2018-07-15T01:47:40.382Z,16.87
2018-07-15T01:52:32.999Z,16.80
2018-07-15T01:57:25.599Z,16.76
2018-07-15T02:02:18.254Z,16.76
2018-07-15T02:07:10.873Z,16.76
2018-07-15T02:12:03.434Z,16.75
2018-07-15T02:16:55.966Z,16.76
2018-07-15T02:21:48.576Z,16.81
2018-07-15T02:26:41.150Z,16.78
2018-07-15T02:31:33.855Z,16.72
2018-07-15T02:36:26.384Z,16.64
2018-07-15T02:41:18.976Z,16.58
2018-07-15T02:46:11.673Z,16.60
2018-07-15T02:51:04.290Z,16.57
2018-07-15T02:55:56.846Z,16.50
2018-07-15T03:00:49.465Z,16.38
2018-07-15T03:05:42.084Z,16.34
2018-07-15T03:10:34.646Z,16.43
2018-07-15T03:15:27.273Z,16.46
2018-07-15T03:20:19.786Z,16.40
2018-07-15T03:25:12.438Z,16.35
2018-07-15T03:30:05.015Z,16.36
2018-07-15T03:34:57.568Z,16.30
2018-07-15T03:39:50.181Z,16.31
2018-07-15T03:44:42.972Z,16.32
2018-07-15T03:49:35.587Z,16.37
2018-07-15T03:54:28.080Z,16.43
2018-07-15T03:59:20.662Z,16.51
2018-07-15T04:04:13.241Z,16.51
2018-07-15T04:09:06.199Z,16.53
2018-07-15T04:13:58.795Z,16.51
2018-07-15T04:18:51.362Z,16.46
2018-07-15T04:23:44.191Z,16.44
2018-07-15T04:28:36.787Z,16.43
2018-07-15T04:33:29.403Z,16.41
2018-07-15T04:38:21.989Z,16.39
2018-07-15T04:43:14.548Z,16.37
2018-07-15T04:48:07.201Z,16.35
2018-07-15T04:52:59.774Z,16.37
2018-07-15T04:57:52.326Z,16.38
2018-07-15T05:02:45.948Z,16.42
2018-07-15T05:07:38.517Z,16.48
2018-07-15T05:12:31.138Z,16.53
2018-07-15T05:17:23.734Z,16.62
2018-07-15T05:22:16.359Z,16.69
2018-07-15T05:27:08.909Z,16.70
2018-07-15T05:32:01.590Z,16.74
2018-07-15T05:36:54.121Z,16.81
2018-07-15T05:41:46.681Z,16.85
2018-07-15T05:46:39.400Z,16.87
2018-07-15T05:51:32.051Z,16.90
2018-07-15T05:56:24.639Z,16.94
2018-07-15T06:01:17.223Z,17.04
2018-07-15T06:06:09.872Z,17.13
2018-07-15T06:11:02.542Z,17.21
2018-07-15T06:15:55.106Z,17.26
2018-07-15T06:20:47.836Z,17.32
2018-07-15T06:25:40.502Z,17.37
2018-07-15T06:30:33.073Z,17.44
2018-07-15T06:35:25.638Z,17.49
2018-07-15T06:40:18.226Z,17.57
2018-07-15T06:45:10.970Z,17.65
2018-07-15T06:50:03.675Z,17.77
2018-07-15T06:54:56.336Z,17.91
2018-07-15T06:59:48.938Z,18.02
2018-07-15T07:04:41.847Z,18.12
2018-07-15T07:09:34.338Z,18.23
2018-07-15T07:14:26.936Z,18.30
2018-07-15T07:19:19.586Z,18.41
2018-07-15T07:24:12.122Z,18.70
2018-07-15T07:29:04.722Z,20.27
2018-07-15T07:33:57.305Z,22.64
2018-07-15T07:38:49.976Z,24.53
2018-07-15T07:43:42.546Z,25.97
2018-07-15T07:48:35.155Z,27.01
2018-07-15T07:53:28.006Z,27.80
2018-07-15T07:58:20.570Z,27.73
2018-07-15T08:03:13.156Z,27.30
2018-07-15T08:08:05.782Z,27.23
2018-07-15T08:12:58.408Z,27.27
2018-07-15T08:17:51.208Z,27.13
2018-07-15T08:22:43.802Z,26.28
2018-07-15T08:27:36.375Z,25.21
2018-07-15T08:32:29.110Z,25.17
2018-07-15T08:37:21.737Z,25.38
2018-07-15T08:42:14.338Z,25.49
2018-07-15T08:47:06.914Z,25.60
2018-07-15T08:52:01.505Z,25.65
2018-07-15T08:56:54.122Z,25.04
2018-07-15T09:01:46.787Z,24.62
2018-07-15T09:06:39.371Z,24.72
2018-07-15T09:11:31.926Z,24.88
2018-07-15T09:16:24.536Z,25.08
2018-07-15T09:21:17.111Z,25.29
2018-07-15T09:26:09.675Z,25.38
2018-07-15T09:31:02.272Z,25.44
2018-07-15T09:35:54.827Z,25.20
2018-07-15T09:40:47.418Z,24.75
2018-07-15T09:45:39.932Z,24.58
2018-07-15T09:50:32.573Z,24.72
2018-07-15T09:55:25.198Z,24.79
2018-07-15T10:00:23.680Z,24.97
2018-07-15T10:05:16.531Z,25.19
2018-07-15T10:10:09.118Z,25.00
2018-07-15T10:15:01.742Z,24.86
2018-07-15T10:19:54.478Z,25.02
2018-07-15T10:24:47.203Z,25.12
2018-07-15T10:29:39.783Z,25.15
2018-07-15T10:34:32.610Z,25.23
2018-07-15T10:39:25.405Z,25.24
2018-07-15T10:44:17.986Z,25.32
2018-07-15T10:49:10.629Z,25.26
2018-07-15T10:54:03.418Z,25.17
2018-07-15T10:58:56.067Z,25.14
2018-07-15T11:03:48.742Z,25.38
2018-07-15T11:08:41.259Z,25.54
2018-07-15T11:13:33.819Z,25.74
2018-07-15T11:18:26.498Z,25.88
2018-07-15T11:23:19.071Z,26.01
2018-07-15T11:28:11.629Z,26.10
2018-07-15T11:33:04.194Z,26.18
2018-07-15T11:37:56.777Z,26.10
2018-07-15T11:42:49.448Z,25.97
2018-07-15T11:47:42.002Z,25.83
2018-07-15T11:52:34.632Z,25.85
2018-07-15T11:57:27.229Z,26.02
2018-07-15T12:02:19.819Z,26.22
2018-07-15T12:07:12.487Z,26.38
2018-07-15T12:12:05.027Z,26.50
2018-07-15T12:16:57.815Z,26.62
2018-07-15T12:21:50.398Z,26.75
2018-07-15T12:26:43.130Z,27.01
2018-07-15T12:31:35.880Z,27.14
2018-07-15T12:36:28.463Z,27.28
2018-07-15T12:41:21.142Z,27.22
2018-07-15T12:46:13.748Z,27.35
2018-07-15T12:51:06.330Z,27.65
2018-07-15T12:55:59.024Z,27.85
2018-07-15T13:00:51.655Z,27.94
2018-07-15T13:05:44.246Z,27.90
2018-07-15T13:10:36.895Z,27.80
2018-07-15T13:15:29.484Z,27.47
2018-07-15T13:20:22.805Z,27.37
2018-07-15T13:25:15.361Z,27.54
2018-07-15T13:30:07.991Z,27.65
2018-07-15T13:35:00.610Z,27.77
2018-07-15T13:39:53.221Z,28.00
2018-07-15T13:44:45.751Z,28.20
2018-07-15T13:49:38.346Z,28.20
2018-07-15T13:54:30.889Z,28.10
2018-07-15T13:59:23.436Z,28.01
2018-07-15T14:04:16.088Z,27.92
2018-07-15T14:09:08.653Z,28.10
2018-07-15T14:14:01.227Z,28.25
2018-07-15T14:18:53.827Z,28.25
2018-07-15T14:23:46.381Z,28.31
2018-07-15T14:28:38.970Z,28.28
2018-07-15T14:33:31.760Z,28.22
2018-07-15T14:38:24.375Z,28.16
2018-07-15T14:43:16.983Z,28.12
2018-07-15T14:48:09.566Z,28.06
2018-07-15T14:53:02.163Z,28.16
2018-07-15T14:57:54.685Z,28.25
2018-07-15T15:02:47.275Z,28.28
2018-07-15T15:07:39.815Z,28.29
2018-07-15T15:12:32.449Z,28.32
2018-07-15T15:17:25.024Z,28.25
2018-07-15T15:22:17.687Z,28.12
2018-07-15T15:27:10.291Z,28.04
2018-07-15T15:32:02.928Z,28.02
2018-07-15T15:36:55.527Z,28.06
2018-07-15T15:41:48.092Z,28.11
2018-07-15T15:46:40.731Z,28.11
2018-07-15T15:51:33.314Z,28.14
2018-07-15T15:56:26.015Z,28.04
2018-07-15T16:01:18.606Z,28.06
2018-07-15T16:06:11.197Z,28.02
2018-07-15T16:11:03.772Z,28.02
2018-07-15T16:15:56.287Z,28.05
2018-07-15T16:20:49.579Z,28.01
2018-07-15T16:25:42.127Z,27.98
2018-07-15T16:30:34.703Z,27.97
2018-07-15T16:35:27.387Z,27.94
2018-07-15T16:40:19.934Z,27.87
2018-07-15T16:45:12.498Z,27.85
2018-07-15T16:50:05.222Z,27.76
2018-07-15T16:54:57.920Z,27.69
2018-07-15T16:59:50.461Z,27.59
2018-07-15T17:04:43.047Z,27.52
2018-07-15T17:09:35.617Z,27.51
2018-07-15T17:14:28.383Z,27.42
2018-07-15T17:19:20.998Z,27.33
2018-07-15T17:24:13.614Z,27.31
2018-07-15T17:29:06.202Z,27.30
2018-07-15T17:33:58.810Z,27.22
2018-07-15T17:38:51.446Z,27.15
2018-07-15T17:43:44.213Z,27.11
2018-07-15T17:48:36.875Z,27.06
2018-07-15T17:53:29.501Z,27.00
2018-07-15T17:58:22.079Z,26.97
2018-07-15T18:03:14.666Z,26.97
2018-07-15T18:08:07.267Z,26.96
2018-07-15T18:12:59.990Z,26.90
2018-07-15T18:17:52.604Z,26.80
2018-07-15T18:22:45.218Z,26.76
2018-07-15T18:27:37.786Z,26.72
2018-07-15T18:32:30.390Z,26.67
2018-07-15T18:37:23.146Z,26.59
2018-07-15T18:42:15.846Z,26.52
2018-07-15T18:47:08.435Z,26.43
2018-07-15T18:52:01.130Z,26.34
2018-07-15T18:56:53.766Z,26.23
2018-07-15T19:01:46.319Z,26.11
2018-07-15T19:06:38.907Z,26.06
2018-07-15T19:11:31.706Z,25.99
2018-07-15T19:16:24.298Z,25.90
2018-07-15T19:21:16.940Z,25.82
2018-07-15T19:26:09.547Z,25.72
2018-07-15T19:31:02.108Z,25.57
2018-07-15T19:35:54.658Z,25.47
2018-07-15T19:40:47.249Z,25.38
2018-07-15T19:45:39.891Z,25.27
2018-07-15T19:50:32.532Z,25.16
2018-07-15T19:55:25.109Z,25.06
2018-07-15T20:00:17.659Z,24.93
2018-07-15T20:05:10.264Z,24.85
2018-07-15T20:10:02.874Z,24.74
2018-07-15T20:14:55.527Z,24.62
2018-07-15T20:19:48.101Z,24.53
2018-07-15T20:24:40.759Z,24.47
2018-07-15T20:29:33.319Z,24.37
2018-07-15T20:34:25.985Z,24.29
2018-07-15T20:39:18.416Z,24.14
2018-07-15T20:44:10.977Z,24.03
2018-07-15T20:49:03.581Z,23.92
2018-07-15T20:53:56.215Z,23.81
2018-07-15T20:58:48.789Z,23.72
2018-07-15T21:03:41.453Z,23.63
2018-07-15T21:08:34.116Z,23.56
2018-07-15T21:13:26.817Z,23.51
2018-07-15T21:18:19.387Z,23.46
2018-07-15T21:23:11.997Z,23.44
2018-07-15T21:28:04.858Z,23.42
2018-07-15T21:32:57.357Z,23.40
2018-07-15T21:37:50.019Z,23.39
2018-07-15T21:42:42.740Z,23.34
2018-07-15T21:47:35.369Z,23.27
2018-07-15T21:52:27.972Z,23.19
2018-07-15T21:57:20.526Z,23.11
2018-07-15T22:02:13.624Z,23.02
2018-07-15T22:07:24.031Z,22.97
2018-07-15T22:12:16.625Z,22.92
2018-07-15T22:17:09.195Z,22.87
2018-07-15T22:22:01.865Z,22.76
2018-07-15T22:26:54.426Z,22.64
2018-07-15T22:31:47.070Z,22.58
2018-07-15T22:36:39.714Z,22.52
2018-07-15T22:41:32.274Z,22.48
2018-07-15T22:46:24.866Z,22.40
2018-07-15T22:51:17.390Z,22.35
2018-07-15T22:56:10.038Z,22.31
2018-07-15T23:01:02.712Z,22.24
2018-07-15T23:06:12.959Z,22.15
2018-07-15T23:11:05.511Z,22.05
2018-07-15T23:15:58.106Z,21.96
2018-07-15T23:20:51.253Z,21.87
2018-07-15T23:25:43.915Z,21.80
2018-07-15T23:30:37.566Z,21.71
2018-07-15T23:35:30.461Z,21.64
2018-07-15T23:40:23.158Z,21.56
2018-07-15T23:45:15.732Z,21.49
2018-07-15T23:50:08.394Z,21.43
2018-07-15T23:55:01.098Z,21.38
2018-07-15T23:59:53.839Z,21.29
